sensor_id;sensor_type;location;lat;lon;timestamp;pressure;altitude;pressure_sealevel;temperature;humidity
43745;BME280;29359;53.048;8.732;2023-03-04T00:01:01;102410.56;;;5.33;84.16
43745;BME280;29359;53.048;8.732;2023-03-04T00:03:03;102403.63;;;5.35;83.52
43745;BME280;29359;53.048;8.732;2023-03-04T00:05:04;102396.63;;;5.34;84.21
43745;BME280;29359;53.048;8.732;2023-03-04T00:07:06;102388.78;;;5.34;84.26
43745;BME280;29359;53.048;8.732;2023-03-04T00:09:08;102401.88;;;5.36;84.26
43745;BME280;29359;53.048;8.732;2023-03-04T00:11:09;102399.25;;;5.34;84.08
43745;BME280;29359;53.048;8.732;2023-03-04T00:13:11;102401.00;;;5.35;83.85
43745;BME280;29359;53.048;8.732;2023-03-04T00:15:13;102398.38;;;5.35;84.52
43745;BME280;29359;53.048;8.732;2023-03-04T00:17:14;102391.38;;;5.34;84.59
43745;BME280;29359;53.048;8.732;2023-03-04T00:19:16;102398.38;;;5.35;84.33
43745;BME280;29359;53.048;8.732;2023-03-04T00:21:17;102391.34;;;5.33;84.04
43745;BME280;29359;53.048;8.732;2023-03-04T00:23:19;102394.03;;;5.36;84.77
43745;BME280;29359;53.048;8.732;2023-03-04T00:25:20;102395.78;;;5.37;84.64
43745;BME280;29359;53.048;8.732;2023-03-04T00:27:21;102398.47;;;5.40;84.19
43745;BME280;29359;53.048;8.732;2023-03-04T00:29:23;102402.81;;;5.40;84.06
43745;BME280;29359;53.048;8.732;2023-03-04T00:31:24;102387.97;;;5.39;83.61
43745;BME280;29359;53.048;8.732;2023-03-04T00:33:26;102388.81;;;5.38;84.14
43745;BME280;29359;53.048;8.732;2023-03-04T00:35:28;102384.44;;;5.36;84.65
43745;BME280;29359;53.048;8.732;2023-03-04T00:37:29;102387.97;;;5.39;84.20
43745;BME280;29359;53.048;8.732;2023-03-04T00:39:30;102382.72;;;5.39;84.67
43745;BME280;29359;53.048;8.732;2023-03-04T00:41:32;102382.75;;;5.40;84.12
43745;BME280;29359;53.048;8.732;2023-03-04T00:43:33;102375.78;;;5.41;84.38
43745;BME280;29359;53.048;8.732;2023-03-04T00:45:35;102379.28;;;5.41;84.04
43745;BME280;29359;53.048;8.732;2023-03-04T00:47:37;102374.03;;;5.41;84.32
43745;BME280;29359;53.048;8.732;2023-03-04T00:49:38;102381.94;;;5.43;84.34
43745;BME280;29359;53.048;8.732;2023-03-04T00:51:40;102376.69;;;5.43;84.04
43745;BME280;29359;53.048;8.732;2023-03-04T00:53:41;102375.81;;;5.42;84.10
43745;BME280;29359;53.048;8.732;2023-03-04T00:55:43;102372.34;;;5.43;83.68
43745;BME280;29359;53.048;8.732;2023-03-04T00:57:44;102382.84;;;5.45;83.86
43745;BME280;29359;53.048;8.732;2023-03-04T00:59:46;102375.84;;;5.45;84.69
43745;BME280;29359;53.048;8.732;2023-03-04T01:01:47;102371.50;;;5.46;83.94
43745;BME280;29359;53.048;8.732;2023-03-04T01:03:48;102364.53;;;5.46;83.59
43745;BME280;29359;53.048;8.732;2023-03-04T01:05:50;102379.34;;;5.46;84.41
43745;BME280;29359;53.048;8.732;2023-03-04T01:07:51;102370.66;;;5.47;83.90
43745;BME280;29359;53.048;8.732;2023-03-04T01:09:53;102363.66;;;5.46;84.31
43745;BME280;29359;53.048;8.732;2023-03-04T01:11:55;102367.16;;;5.46;84.17
43745;BME280;29359;53.048;8.732;2023-03-04T01:13:56;102362.78;;;5.47;83.45
43745;BME280;29359;53.048;8.732;2023-03-04T01:15:58;102373.25;;;5.47;84.21
43745;BME280;29359;53.048;8.732;2023-03-04T01:17:59;102362.75;;;5.45;83.94
43745;BME280;29359;53.048;8.732;2023-03-04T01:20:01;102366.28;;;5.47;83.84
43745;BME280;29359;53.048;8.732;2023-03-04T01:22:03;102367.16;;;5.48;84.16
43745;BME280;29359;53.048;8.732;2023-03-04T01:24:04;102356.69;;;5.48;83.62
43745;BME280;29359;53.048;8.732;2023-03-04T01:26:06;102357.56;;;5.48;83.43
43745;BME280;29359;53.048;8.732;2023-03-04T01:28:07;102347.13;;;5.50;82.91
43745;BME280;29359;53.048;8.732;2023-03-04T01:30:09;102353.22;;;5.49;83.02
43745;BME280;29359;53.048;8.732;2023-03-04T01:32:11;102347.06;;;5.47;83.34
43745;BME280;29359;53.048;8.732;2023-03-04T01:34:13;102348.81;;;5.46;83.69
43745;BME280;29359;53.048;8.732;2023-03-04T01:36:14;102353.19;;;5.47;83.76
43745;BME280;29359;53.048;8.732;2023-03-04T01:38:16;102353.19;;;5.47;83.09
43745;BME280;29359;53.048;8.732;2023-03-04T01:40:17;102339.25;;;5.48;83.61
43745;BME280;29359;53.048;8.732;2023-03-04T01:42:21;102347.94;;;5.47;83.78
43745;BME280;29359;53.048;8.732;2023-03-04T01:44:23;102338.34;;;5.48;83.56
43745;BME280;29359;53.048;8.732;2023-03-04T01:46:25;102344.47;;;5.48;84.24
43745;BME280;29359;53.048;8.732;2023-03-04T01:48:32;102327.00;;;5.47;84.20
43745;BME280;29359;53.048;8.732;2023-03-04T01:50:37;102329.59;;;5.46;84.69
43745;BME280;29359;53.048;8.732;2023-03-04T01:52:39;102323.50;;;5.47;83.99
43745;BME280;29359;53.048;8.732;2023-03-04T01:54:41;102329.63;;;5.47;84.20
43745;BME280;29359;53.048;8.732;2023-03-04T01:56:44;102323.50;;;5.47;83.31
43745;BME280;29359;53.048;8.732;2023-03-04T02:01:10;102325.25;;;5.46;83.79
43745;BME280;29359;53.048;8.732;2023-03-04T02:03:14;102320.03;;;5.48;83.93
43745;BME280;29359;53.048;8.732;2023-03-04T02:05:16;102311.22;;;5.44;83.51
43745;BME280;29359;53.048;8.732;2023-03-04T02:07:18;102314.75;;;5.46;83.89
43745;BME280;29359;53.048;8.732;2023-03-04T02:09:20;102313.81;;;5.43;83.99
43745;BME280;29359;53.048;8.732;2023-03-04T02:11:21;102310.31;;;5.41;84.59
43745;BME280;29359;53.048;8.732;2023-03-04T02:13:23;102303.31;;;5.40;84.69
43745;BME280;29359;53.048;8.732;2023-03-04T02:15:24;102307.66;;;5.39;84.73
43745;BME280;29359;53.048;8.732;2023-03-04T02:17:27;102305.91;;;5.40;84.88
43745;BME280;29359;53.048;8.732;2023-03-04T02:22:05;102300.63;;;5.35;86.23
43745;BME280;29359;53.048;8.732;2023-03-04T02:24:31;102306.72;;;5.35;86.74
43745;BME280;29359;53.048;8.732;2023-03-04T02:26:36;102302.31;;;5.33;87.30
43745;BME280;29359;53.048;8.732;2023-03-04T02:28:37;102303.09;;;5.27;88.40
43745;BME280;29359;53.048;8.732;2023-03-04T02:30:39;102292.59;;;5.24;88.16
43745;BME280;29359;53.048;8.732;2023-03-04T02:32:41;102299.44;;;5.19;89.21
43745;BME280;29359;53.048;8.732;2023-03-04T02:34:49;102299.38;;;5.16;89.71
43745;BME280;29359;53.048;8.732;2023-03-04T02:36:52;102292.34;;;5.12;90.91
43745;BME280;29359;53.048;8.732;2023-03-04T02:38:55;102290.53;;;5.08;91.39
43745;BME280;29359;53.048;8.732;2023-03-04T02:41:01;102289.63;;;5.06;91.89
43745;BME280;29359;53.048;8.732;2023-03-04T02:43:03;102286.09;;;5.04;91.61
43745;BME280;29359;53.048;8.732;2023-03-04T02:45:05;102287.81;;;5.02;92.03
43745;BME280;29359;53.048;8.732;2023-03-04T02:47:09;102282.56;;;5.02;91.68
43745;BME280;29359;53.048;8.732;2023-03-04T02:49:11;102283.44;;;5.01;92.32
43745;BME280;29359;53.048;8.732;2023-03-04T02:51:12;102281.66;;;5.00;92.78
43745;BME280;29359;53.048;8.732;2023-03-04T02:53:14;102269.47;;;5.02;92.36
43745;BME280;29359;53.048;8.732;2023-03-04T02:55:16;102273.88;;;5.04;92.56
43745;BME280;29359;53.048;8.732;2023-03-04T02:57:18;102277.41;;;5.07;92.19
43745;BME280;29359;53.048;8.732;2023-03-04T02:59:20;102261.72;;;5.07;91.30
43745;BME280;29359;53.048;8.732;2023-03-04T03:01:22;102260.00;;;5.09;91.24
43745;BME280;29359;53.048;8.732;2023-03-04T03:03:28;102255.66;;;5.09;90.88
43745;BME280;29359;53.048;8.732;2023-03-04T03:05:31;102256.53;;;5.10;91.01
43745;BME280;29359;53.048;8.732;2023-03-04T03:07:33;102262.66;;;5.12;90.71
43745;BME280;29359;53.048;8.732;2023-03-04T03:09:35;102253.06;;;5.12;90.68
43745;BME280;29359;53.048;8.732;2023-03-04T03:11:36;102246.13;;;5.14;89.60
43745;BME280;29359;53.048;8.732;2023-03-04T03:13:38;102251.38;;;5.14;90.17
43745;BME280;29359;53.048;8.732;2023-03-04T03:15:39;102260.09;;;5.15;89.50
43745;BME280;29359;53.048;8.732;2023-03-04T03:17:42;102249.66;;;5.16;89.50
43745;BME280;29359;53.048;8.732;2023-03-04T03:19:44;102254.00;;;5.16;89.20
43745;BME280;29359;53.048;8.732;2023-03-04T03:21:45;102247.00;;;5.15;89.48
43745;BME280;29359;53.048;8.732;2023-03-04T03:23:47;102247.88;;;5.15;89.71
43745;BME280;29359;53.048;8.732;2023-03-04T03:25:48;102245.28;;;5.17;89.68
43745;BME280;29359;53.048;8.732;2023-03-04T03:27:50;102247.03;;;5.16;89.32
43745;BME280;29359;53.048;8.732;2023-03-04T03:29:51;102247.03;;;5.16;89.24
43745;BME280;29359;53.048;8.732;2023-03-04T03:31:53;102244.41;;;5.16;89.45
43745;BME280;29359;53.048;8.732;2023-03-04T03:33:55;102244.41;;;5.16;88.69
43745;BME280;29359;53.048;8.732;2023-03-04T03:35:57;102237.41;;;5.15;89.10
43745;BME280;29359;53.048;8.732;2023-03-04T03:37:58;102243.53;;;5.16;89.29
43745;BME280;29359;53.048;8.732;2023-03-04T03:40:00;102232.22;;;5.17;89.22
43745;BME280;29359;53.048;8.732;2023-03-04T03:42:02;102233.13;;;5.19;88.56
43745;BME280;29359;53.048;8.732;2023-03-04T03:44:03;102231.38;;;5.19;88.21
43745;BME280;29359;53.048;8.732;2023-03-04T03:46:05;102234.00;;;5.19;88.62
43745;BME280;29359;53.048;8.732;2023-03-04T03:48:06;102234.88;;;5.20;88.72
43745;BME280;29359;53.048;8.732;2023-03-04T03:50:08;102231.44;;;5.21;88.90
43745;BME280;29359;53.048;8.732;2023-03-04T03:52:10;102230.56;;;5.22;89.00
43745;BME280;29359;53.048;8.732;2023-03-04T03:54:11;102227.97;;;5.22;88.22
43745;BME280;29359;53.048;8.732;2023-03-04T03:56:13;102230.56;;;5.20;88.50
43745;BME280;29359;53.048;8.732;2023-03-04T03:58:14;102232.25;;;5.20;88.84
43745;BME280;29359;53.048;8.732;2023-03-04T04:00:16;102234.88;;;5.20;89.22
43745;BME280;29359;53.048;8.732;2023-03-04T04:02:18;102235.72;;;5.19;88.90
43745;BME280;29359;53.048;8.732;2023-03-04T04:04:19;102229.59;;;5.17;89.19
43745;BME280;29359;53.048;8.732;2023-03-04T04:06:21;102223.47;;;5.16;89.51
43745;BME280;29359;53.048;8.732;2023-03-04T04:08:22;102227.81;;;5.16;89.84
43745;BME280;29359;53.048;8.732;2023-03-04T04:10:24;102224.31;;;5.15;89.13
43745;BME280;29359;53.048;8.732;2023-03-04T04:12:25;102217.34;;;5.16;89.58
43745;BME280;29359;53.048;8.732;2023-03-04T04:14:27;102219.03;;;5.12;90.24
43745;BME280;29359;53.048;8.732;2023-03-04T04:16:29;102218.16;;;5.12;90.00
43745;BME280;29359;53.048;8.732;2023-03-04T04:18:30;102213.81;;;5.12;89.62
43745;BME280;29359;53.048;8.732;2023-03-04T04:20:32;102205.06;;;5.10;90.13
43745;BME280;29359;53.048;8.732;2023-03-04T04:22:34;102204.16;;;5.08;90.70
43745;BME280;29359;53.048;8.732;2023-03-04T04:24:35;102200.66;;;5.08;90.87
43745;BME280;29359;53.048;8.732;2023-03-04T04:26:37;102205.84;;;5.04;90.92
43745;BME280;29359;53.048;8.732;2023-03-04T04:28:39;102197.16;;;5.07;90.64
43745;BME280;29359;53.048;8.732;2023-03-04T04:30:41;102200.63;;;5.06;91.78
43745;BME280;29359;53.048;8.732;2023-03-04T04:32:43;102202.34;;;5.04;91.69
43745;BME280;29359;53.048;8.732;2023-03-04T04:34:44;102197.97;;;5.03;91.38
43745;BME280;29359;53.048;8.732;2023-03-04T04:36:46;102197.03;;;4.99;92.31
43745;BME280;29359;53.048;8.732;2023-03-04T04:38:48;102201.38;;;4.99;92.30
43745;BME280;29359;53.048;8.732;2023-03-04T04:40:49;102201.34;;;4.96;93.20
43745;BME280;29359;53.048;8.732;2023-03-04T04:42:51;102199.56;;;4.95;92.66
43745;BME280;29359;53.048;8.732;2023-03-04T04:44:53;102195.22;;;4.95;93.25
43745;BME280;29359;53.048;8.732;2023-03-04T04:46:54;102201.31;;;4.94;93.73
43745;BME280;29359;53.048;8.732;2023-03-04T04:48:56;102200.38;;;4.91;93.51
43745;BME280;29359;53.048;8.732;2023-03-04T04:50:57;102203.00;;;4.91;94.66
43745;BME280;29359;53.048;8.732;2023-03-04T04:52:59;102203.78;;;4.85;94.75
43745;BME280;29359;53.048;8.732;2023-03-04T04:55:01;102208.13;;;4.85;94.57
43745;BME280;29359;53.048;8.732;2023-03-04T04:57:02;102210.72;;;4.83;95.22
43745;BME280;29359;53.048;8.732;2023-03-04T04:59:05;102212.44;;;4.81;95.50
43745;BME280;29359;53.048;8.732;2023-03-04T05:01:09;102210.63;;;4.79;96.36
43745;BME280;29359;53.048;8.732;2023-03-04T05:03:10;102208.81;;;4.76;96.94
43745;BME280;29359;53.048;8.732;2023-03-04T05:05:12;102204.41;;;4.73;97.45
43745;BME280;29359;53.048;8.732;2023-03-04T05:07:13;102207.88;;;4.72;97.66
43745;BME280;29359;53.048;8.732;2023-03-04T05:09:15;102201.75;;;4.70;97.78
43745;BME280;29359;53.048;8.732;2023-03-04T05:11:17;102206.06;;;4.68;98.25
43745;BME280;29359;53.048;8.732;2023-03-04T05:13:19;102206.03;;;4.65;98.08
43745;BME280;29359;53.048;8.732;2023-03-04T05:15:21;102204.25;;;4.64;98.42
43745;BME280;29359;53.048;8.732;2023-03-04T05:17:23;102199.81;;;4.60;99.24
43745;BME280;29359;53.048;8.732;2023-03-04T05:19:24;102197.13;;;4.56;99.57
43745;BME280;29359;53.048;8.732;2023-03-04T05:21:26;102197.09;;;4.54;100.00
43745;BME280;29359;53.048;8.732;2023-03-04T05:23:30;102202.25;;;4.50;100.00
43745;BME280;29359;53.048;8.732;2023-03-04T05:25:32;102197.00;;;4.48;100.00
43745;BME280;29359;53.048;8.732;2023-03-04T05:27:34;102209.16;;;4.46;100.00
43745;BME280;29359;53.048;8.732;2023-03-04T05:29:35;102203.06;;;4.46;100.00
43745;BME280;29359;53.048;8.732;2023-03-04T05:31:37;102200.44;;;4.46;100.00
43745;BME280;29359;53.048;8.732;2023-03-04T05:33:38;102205.63;;;4.44;100.00
43745;BME280;29359;53.048;8.732;2023-03-04T05:35:41;102208.25;;;4.44;100.00
43745;BME280;29359;53.048;8.732;2023-03-04T05:37:43;102206.50;;;4.43;100.00
43745;BME280;29359;53.048;8.732;2023-03-04T05:39:44;102208.19;;;4.41;100.00
43745;BME280;29359;53.048;8.732;2023-03-04T05:41:46;102208.19;;;4.41;100.00
43745;BME280;29359;53.048;8.732;2023-03-04T05:43:48;102198.59;;;4.40;100.00
43745;BME280;29359;53.048;8.732;2023-03-04T05:45:50;102202.94;;;4.39;100.00
43745;BME280;29359;53.048;8.732;2023-03-04T05:47:52;102205.53;;;4.38;100.00
43745;BME280;29359;53.048;8.732;2023-03-04T05:49:54;102211.66;;;4.40;100.00
43745;BME280;29359;53.048;8.732;2023-03-04T05:51:55;102206.47;;;4.41;100.00
43745;BME280;29359;53.048;8.732;2023-03-04T05:53:57;102207.34;;;4.42;100.00
43745;BME280;29359;53.048;8.732;2023-03-04T05:55:58;102202.13;;;4.42;100.00
43745;BME280;29359;53.048;8.732;2023-03-04T05:58:00;102202.97;;;4.41;100.00
43745;BME280;29359;53.048;8.732;2023-03-04T06:00:03;102196.91;;;4.44;100.00
43745;BME280;29359;53.048;8.732;2023-03-04T06:02:05;102200.41;;;4.44;100.00
43745;BME280;29359;53.048;8.732;2023-03-04T06:04:07;102195.22;;;4.46;100.00
43745;BME280;29359;53.048;8.732;2023-03-04T06:06:09;102191.75;;;4.47;100.00
43745;BME280;29359;53.048;8.732;2023-03-04T06:08:11;102186.53;;;4.48;100.00
43745;BME280;29359;53.048;8.732;2023-03-04T06:10:15;102191.75;;;4.48;100.00
43745;BME280;29359;53.048;8.732;2023-03-04T06:12:17;102196.13;;;4.49;100.00
43745;BME280;29359;53.048;8.732;2023-03-04T06:14:18;102196.13;;;4.49;100.00
43745;BME280;29359;53.048;8.732;2023-03-04T06:16:20;102188.31;;;4.51;100.00
43745;BME280;29359;53.048;8.732;2023-03-04T06:18:23;102192.69;;;4.52;100.00
43745;BME280;29359;53.048;8.732;2023-03-04T06:20:25;102200.56;;;4.53;100.00
43745;BME280;29359;53.048;8.732;2023-03-04T06:22:26;102187.53;;;4.55;100.00
43745;BME280;29359;53.048;8.732;2023-03-04T06:24:28;102182.31;;;4.56;100.00
43745;BME280;29359;53.048;8.732;2023-03-04T06:26:30;102183.25;;;4.60;100.00
43745;BME280;29359;53.048;8.732;2023-03-04T06:28:31;102182.44;;;4.64;100.00
43745;BME280;29359;53.048;8.732;2023-03-04T06:30:33;102185.03;;;4.62;100.00
43745;BME280;29359;53.048;8.732;2023-03-04T06:32:34;102187.69;;;4.64;100.00
43745;BME280;29359;53.048;8.732;2023-03-04T06:34:36;102189.44;;;4.65;100.00
43745;BME280;29359;53.048;8.732;2023-03-04T06:36:37;102195.56;;;4.65;100.00
43745;BME280;29359;53.048;8.732;2023-03-04T06:38:39;102194.72;;;4.68;100.00
43745;BME280;29359;53.048;8.732;2023-03-04T06:40:40;102193.84;;;4.67;100.00
43745;BME280;29359;53.048;8.732;2023-03-04T06:42:42;102196.50;;;4.69;100.00
43745;BME280;29359;53.048;8.732;2023-03-04T06:44:43;102198.25;;;4.70;100.00
43745;BME280;29359;53.048;8.732;2023-03-04T06:46:45;102186.91;;;4.69;100.00
43745;BME280;29359;53.048;8.732;2023-03-04T06:48:47;102201.75;;;4.70;100.00
43745;BME280;29359;53.048;8.732;2023-03-04T06:50:48;102199.16;;;4.72;100.00
43745;BME280;29359;53.048;8.732;2023-03-04T06:52:50;102203.56;;;4.74;100.00
43745;BME280;29359;53.048;8.732;2023-03-04T06:54:51;102206.19;;;4.74;100.00
43745;BME280;29359;53.048;8.732;2023-03-04T06:56:53;102207.94;;;4.76;100.00
43745;BME280;29359;53.048;8.732;2023-03-04T06:58:54;102210.63;;;4.79;100.00
43745;BME280;29359;53.048;8.732;2023-03-04T07:00:56;102207.16;;;4.78;100.00
43745;BME280;29359;53.048;8.732;2023-03-04T07:02:58;102207.16;;;4.80;100.00
43745;BME280;29359;53.048;8.732;2023-03-04T07:04:59;102221.97;;;4.78;100.00
43745;BME280;29359;53.048;8.732;2023-03-04T07:07:01;102211.53;;;4.79;100.00
43745;BME280;29359;53.048;8.732;2023-03-04T07:09:02;102214.13;;;4.79;100.00
43745;BME280;29359;53.048;8.732;2023-03-04T07:11:04;102214.13;;;4.79;100.00
43745;BME280;29359;53.048;8.732;2023-03-04T07:13:06;102206.28;;;4.79;100.00
43745;BME280;29359;53.048;8.732;2023-03-04T07:15:08;102215.09;;;4.84;100.00
43745;BME280;29359;53.048;8.732;2023-03-04T07:17:09;102210.78;;;4.88;100.00
43745;BME280;29359;53.048;8.732;2023-03-04T07:19:11;102210.88;;;4.92;100.00
43745;BME280;29359;53.048;8.732;2023-03-04T07:21:13;102216.13;;;4.94;100.00
43745;BME280;29359;53.048;8.732;2023-03-04T07:23:15;102220.50;;;4.95;100.00
43745;BME280;29359;53.048;8.732;2023-03-04T07:25:17;102219.69;;;4.97;100.00
43745;BME280;29359;53.048;8.732;2023-03-04T07:27:18;102217.94;;;4.98;100.00
43745;BME280;29359;53.048;8.732;2023-03-04T07:29:20;102217.13;;;5.00;100.00
43745;BME280;29359;53.048;8.732;2023-03-04T07:31:24;102211.03;;;5.01;100.00
43745;BME280;29359;53.048;8.732;2023-03-04T07:33:28;102217.16;;;5.03;100.00
43745;BME280;29359;53.048;8.732;2023-03-04T07:35:30;102218.91;;;5.04;100.00
43745;BME280;29359;53.048;8.732;2023-03-04T07:37:31;102218.94;;;5.06;100.00
43745;BME280;29359;53.048;8.732;2023-03-04T07:39:32;102222.47;;;5.08;100.00
43745;BME280;29359;53.048;8.732;2023-03-04T07:41:34;102222.47;;;5.08;100.00
43745;BME280;29359;53.048;8.732;2023-03-04T07:43:37;102225.94;;;5.07;100.00
43745;BME280;29359;53.048;8.732;2023-03-04T07:45:38;102229.44;;;5.08;100.00
43745;BME280;29359;53.048;8.732;2023-03-04T07:47:40;102231.19;;;5.09;100.00
43745;BME280;29359;53.048;8.732;2023-03-04T07:49:41;102234.72;;;5.11;100.00
43745;BME280;29359;53.048;8.732;2023-03-04T07:51:43;102222.47;;;5.08;100.00
43745;BME280;29359;53.048;8.732;2023-03-04T07:53:47;102233.00;;;5.11;100.00
43745;BME280;29359;53.048;8.732;2023-03-04T07:55:49;102231.25;;;5.12;100.00
43745;BME280;29359;53.048;8.732;2023-03-04T07:57:51;102226.91;;;5.12;100.00
43745;BME280;29359;53.048;8.732;2023-03-04T07:59:52;102226.03;;;5.13;100.00
43745;BME280;29359;53.048;8.732;2023-03-04T08:01:53;102231.28;;;5.13;100.00
43745;BME280;29359;53.048;8.732;2023-03-04T08:03:56;102228.72;;;5.16;100.00
43745;BME280;29359;53.048;8.732;2023-03-04T08:05:57;102228.72;;;5.18;100.00
43745;BME280;29359;53.048;8.732;2023-03-04T08:07:59;102227.03;;;5.20;100.00
43745;BME280;29359;53.048;8.732;2023-03-04T08:10:00;102220.97;;;5.21;100.00
43745;BME280;29359;53.048;8.732;2023-03-04T08:12:02;102227.09;;;5.23;100.00
43745;BME280;29359;53.048;8.732;2023-03-04T08:14:04;102224.47;;;5.23;100.00
43745;BME280;29359;53.048;8.732;2023-03-04T08:16:06;102220.16;;;5.26;100.00
43745;BME280;29359;53.048;8.732;2023-03-04T08:18:08;102221.94;;;5.27;100.00
43745;BME280;29359;53.048;8.732;2023-03-04T08:20:10;102215.81;;;5.27;100.00
43745;BME280;29359;53.048;8.732;2023-03-04T08:22:12;102221.97;;;5.29;99.00
43745;BME280;29359;53.048;8.732;2023-03-04T08:24:13;102225.47;;;5.31;99.01
43745;BME280;29359;53.048;8.732;2023-03-04T08:26:17;102222.00;;;5.32;98.02
43745;BME280;29359;53.048;8.732;2023-03-04T08:28:18;102221.16;;;5.33;96.94
43745;BME280;29359;53.048;8.732;2023-03-04T08:30:20;102227.25;;;5.33;96.49
43745;BME280;29359;53.048;8.732;2023-03-04T08:32:22;102236.03;;;5.35;95.37
43745;BME280;29359;53.048;8.732;2023-03-04T08:34:25;102232.53;;;5.35;94.62
43745;BME280;29359;53.048;8.732;2023-03-04T08:36:28;102234.31;;;5.38;93.18
43745;BME280;29359;53.048;8.732;2023-03-04T08:38:29;102234.34;;;5.41;92.99
43745;BME280;29359;53.048;8.732;2023-03-04T08:40:32;102243.13;;;5.44;93.22
43745;BME280;29359;53.048;8.732;2023-03-04T08:42:33;102229.19;;;5.45;92.54
43745;BME280;29359;53.048;8.732;2023-03-04T08:44:35;102242.28;;;5.45;90.67
43745;BME280;29359;53.048;8.732;2023-03-04T08:46:38;102242.31;;;5.47;90.34
43745;BME280;29359;53.048;8.732;2023-03-04T08:48:40;102237.06;;;5.47;90.14
43745;BME280;29359;53.048;8.732;2023-03-04T08:50:43;102239.63;;;5.44;89.30
43745;BME280;29359;53.048;8.732;2023-03-04T08:52:45;102245.81;;;5.47;89.29
43745;BME280;29359;53.048;8.732;2023-03-04T08:54:46;102236.22;;;5.49;88.41
43745;BME280;29359;53.048;8.732;2023-03-04T08:56:48;102250.22;;;5.51;87.93
43745;BME280;29359;53.048;8.732;2023-03-04T08:58:49;102241.47;;;5.49;87.66
43745;BME280;29359;53.048;8.732;2023-03-04T09:00:51;102238.88;;;5.51;88.18
43745;BME280;29359;53.048;8.732;2023-03-04T09:02:52;102231.00;;;5.51;87.99
43745;BME280;29359;53.048;8.732;2023-03-04T09:04:55;102231.06;;;5.55;87.16
43745;BME280;29359;53.048;8.732;2023-03-04T09:06:57;102246.00;;;5.61;87.52
43745;BME280;29359;53.048;8.732;2023-03-04T09:08:59;102241.75;;;5.66;87.34
43745;BME280;29359;53.048;8.732;2023-03-04T09:11:00;102247.00;;;5.67;87.01
43745;BME280;29359;53.048;8.732;2023-03-04T09:13:02;102245.28;;;5.70;87.41
43745;BME280;29359;53.048;8.732;2023-03-04T09:15:05;102253.16;;;5.71;86.75
43745;BME280;29359;53.048;8.732;2023-03-04T09:17:14;102252.25;;;5.69;86.86
43745;BME280;29359;53.048;8.732;2023-03-04T09:19:15;102262.59;;;5.61;86.99
43745;BME280;29359;53.048;8.732;2023-03-04T09:21:17;102261.59;;;5.52;86.21
43745;BME280;29359;53.048;8.732;2023-03-04T09:23:18;102260.66;;;5.48;87.26
43745;BME280;29359;53.048;8.732;2023-03-04T09:25:20;102257.22;;;5.51;87.82
43745;BME280;29359;53.048;8.732;2023-03-04T09:27:21;102253.78;;;5.56;87.30
43745;BME280;29359;53.048;8.732;2023-03-04T09:29:23;102263.47;;;5.62;87.32
43745;BME280;29359;53.048;8.732;2023-03-04T09:31:25;102267.09;;;5.67;87.13
43745;BME280;29359;53.048;8.732;2023-03-04T09:33:27;102254.94;;;5.72;86.80
43745;BME280;29359;53.048;8.732;2023-03-04T09:35:29;102254.97;;;5.75;86.65
43745;BME280;29359;53.048;8.732;2023-03-04T09:37:30;102259.44;;;5.82;86.70
43745;BME280;29359;53.048;8.732;2023-03-04T09:39:32;102256.97;;;5.91;85.94
43745;BME280;29359;53.048;8.732;2023-03-04T09:41:43;102263.16;;;5.98;84.61
43745;BME280;29359;53.048;8.732;2023-03-04T09:43:47;102256.22;;;6.02;84.24
43745;BME280;29359;53.048;8.732;2023-03-04T09:45:55;102251.75;;;5.93;84.19
43745;BME280;29359;53.048;8.732;2023-03-04T09:47:57;102268.25;;;5.87;84.32
43745;BME280;29359;53.048;8.732;2023-03-04T09:50:02;102273.41;;;5.83;84.40
43745;BME280;29359;53.048;8.732;2023-03-04T09:56:51;102275.00;;;5.72;86.27
43745;BME280;29359;53.048;8.732;2023-03-04T10:01:25;102277.56;;;5.67;87.17
43745;BME280;29359;53.048;8.732;2023-03-04T10:05:56;102274.69;;;5.52;85.83
43745;BME280;29359;53.048;8.732;2023-03-04T10:10:23;102278.34;;;5.63;86.14
43745;BME280;29359;53.048;8.732;2023-03-04T10:12:28;102274.97;;;5.70;86.44
43745;BME280;29359;53.048;8.732;2023-03-04T10:14:34;102275.94;;;5.75;85.52
43745;BME280;29359;53.048;8.732;2023-03-04T10:16:51;102273.34;;;5.78;85.76
43745;BME280;29359;53.048;8.732;2023-03-04T10:19:35;102282.34;;;5.94;85.92
43745;BME280;29359;53.048;8.732;2023-03-04T10:21:45;102277.13;;;5.97;85.43
43745;BME280;29359;53.048;8.732;2023-03-04T10:23:48;102285.88;;;5.96;85.53
43745;BME280;29359;53.048;8.732;2023-03-04T10:25:50;102281.47;;;5.93;85.25
43745;BME280;29359;53.048;8.732;2023-03-04T10:27:57;102281.47;;;5.93;85.63
43745;BME280;29359;53.048;8.732;2023-03-04T10:29:59;102277.94;;;5.91;86.37
43745;BME280;29359;53.048;8.732;2023-03-04T10:32:01;102282.22;;;5.88;86.48
43745;BME280;29359;53.048;8.732;2023-03-04T10:34:04;102276.09;;;5.87;86.57
43745;BME280;29359;53.048;8.732;2023-03-04T10:36:20;102280.53;;;5.90;86.57
43745;BME280;29359;53.048;8.732;2023-03-04T10:38:29;102277.06;;;5.92;86.42
43745;BME280;29359;53.048;8.732;2023-03-04T10:40:37;102276.28;;;5.99;86.54
43745;BME280;29359;53.048;8.732;2023-03-04T10:42:39;102287.81;;;6.08;86.18
43745;BME280;29359;53.048;8.732;2023-03-04T10:44:43;102272.97;;;6.10;85.25
43745;BME280;29359;53.048;8.732;2023-03-04T10:46:46;102270.38;;;6.13;85.08
43745;BME280;29359;53.048;8.732;2023-03-04T10:48:48;102279.22;;;6.21;84.74
43745;BME280;29359;53.048;8.732;2023-03-04T10:50:50;102276.66;;;6.24;83.90
43745;BME280;29359;53.048;8.732;2023-03-04T10:52:53;102259.31;;;6.37;84.73
43745;BME280;29359;53.048;8.732;2023-03-04T10:55:05;102267.25;;;6.44;83.77
43745;BME280;29359;53.048;8.732;2023-03-04T10:57:16;102279.44;;;6.39;82.71
43745;BME280;29359;53.048;8.732;2023-03-04T10:59:29;102264.41;;;6.23;83.09
43745;BME280;29359;53.048;8.732;2023-03-04T11:01:34;102260.78;;;6.15;84.09
43745;BME280;29359;53.048;8.732;2023-03-04T11:03:36;102255.59;;;6.19;84.62